Time;durP1;ratioP1;P1;durP2;ratioP2;P2;SDS_P1;SDS_P2;PMS_P1;PMS_P2;Temp;Humidity;BMP_temperature;BMP_pressure;BME280_temperature;BME280_humidity;BME280_pressure;Samples;Min_cycle;Max_cycle;Signal;HPM_P1;HPM_P2
2022/09/22 00:01:28;;;;;;;8.45;2.08;;;16.20;99.90;;;;;;5051342;28;20094;-84
2022/09/22 00:03:58;;;;;;;7.75;1.88;;;16.30;99.90;;;;;;5053941;28;20044;-86
2022/09/22 00:06:28;;;;;;;10.50;1.50;;;16.60;99.90;;;;;;5050239;28;20416;-82
2022/09/22 00:09:00;;;;;;;13.00;2.25;;;16.70;99.90;;;;;;5053749;28;20020;-83
2022/09/22 00:11:30;;;;;;;9.90;2.17;;;16.80;99.90;;;;;;5050645;28;20017;-81
2022/09/22 00:14:15;;;;;;;12.98;2.08;;;16.80;99.90;;;;;;5053448;28;20048;-83
2022/09/22 00:16:45;;;;;;;11.35;2.65;;;16.80;99.90;;;;;;5050461;28;20051;-81
2022/09/22 00:19:18;;;;;;;13.02;2.05;;;16.80;99.90;;;;;;5053427;28;20021;-81
2022/09/22 00:21:46;;;;;;;8.93;1.83;;;16.80;99.90;;;;;;5051697;28;20500;-85
2022/09/22 00:24:14;;;;;;;9.77;1.40;;;16.80;99.90;;;;;;5053212;28;20021;-80
2022/09/22 00:26:42;;;;;;;12.43;2.40;;;16.90;99.90;;;;;;5052869;28;20500;-80
2022/09/22 00:29:10;;;;;;;15.98;2.47;;;16.90;99.90;;;;;;5052217;28;20029;-76
2022/09/22 00:31:40;;;;;;;10.18;2.70;;;16.90;99.90;;;;;;5053460;28;20020;-81
2022/09/22 00:34:13;;;;;;;9.80;2.58;;;16.90;99.90;;;;;;5053254;28;20033;-80
2022/09/22 00:36:40;;;;;;;9.30;1.98;;;16.90;99.90;;;;;;5053388;28;20067;-87
2022/09/22 00:39:07;;;;;;;7.63;1.95;;;16.80;99.90;;;;;;5053423;28;20031;-87
2022/09/22 00:41:40;;;;;;;11.70;2.83;;;16.80;99.90;;;;;;5053529;28;20100;-89
2022/09/22 00:44:26;;;;;;;9.15;2.28;;;16.70;99.90;;;;;;5052959;28;20032;-81
2022/09/22 00:47:18;;;;;;;8.50;1.98;;;16.60;99.90;;;;;;5056721;28;20024;-81
2022/09/22 00:49:54;;;;;;;7.43;1.60;;;16.60;99.90;;;;;;5053787;28;20021;-88
2022/09/22 00:52:45;;;;;;;5.20;1.52;;;16.60;99.90;;;;;;5052422;28;20021;-83
2022/09/22 00:55:36;;;;;;;13.35;1.98;;;16.70;99.90;;;;;;5051377;28;20033;-86
2022/09/22 00:58:08;;;;;;;8.52;1.30;;;16.80;99.90;;;;;;5051535;28;20111;-82
2022/09/22 01:00:36;;;;;;;9.23;1.27;;;16.90;99.90;;;;;;5051653;28;20028;-84
2022/09/22 01:03:08;;;;;;;11.75;2.60;;;16.90;99.90;;;;;;5051104;28;20045;-81
2022/09/22 01:05:37;;;;;;;8.07;1.77;;;16.90;99.90;;;;;;5051857;28;20505;-80
2022/09/22 01:08:04;;;;;;;8.02;1.35;;;17.00;99.90;;;;;;5050190;28;20104;-82
2022/09/22 01:10:32;;;;;;;7.88;2.17;;;17.10;99.90;;;;;;5052912;28;20056;-80
2022/09/22 01:13:20;;;;;;;5.95;1.67;;;17.10;99.90;;;;;;5051299;28;20024;-81
2022/09/22 01:16:10;;;;;;;9.07;1.75;;;17.20;99.90;;;;;;5050710;28;20082;-83
2022/09/22 01:18:55;;;;;;;9.32;1.40;;;17.10;99.90;;;;;;5043225;28;20064;-84
2022/09/22 01:21:50;;;;;;;9.45;2.15;;;17.10;99.90;;;;;;5039544;28;20100;-85
2022/09/22 01:24:23;;;;;;;8.43;1.42;;;17.30;99.90;;;;;;5052503;28;20032;-80
2022/09/22 01:27:06;;;;;;;6.43;2.53;;;17.30;99.90;;;;;;5052322;28;20484;-81
2022/09/22 01:29:54;;;;;;;10.90;1.73;;;17.30;99.90;;;;;;5051942;28;20028;-81
2022/09/22 01:32:38;;;;;;;9.32;1.65;;;17.50;99.90;;;;;;5051659;28;20021;-82
2022/09/22 01:35:35;;;;;;;11.27;2.63;;;17.40;99.90;;;;;;5049694;28;20390;-79
2022/09/22 01:38:20;;;;;;;8.43;1.92;;;17.60;99.90;;;;;;5050999;28;20070;-80
2022/09/22 01:40:57;;;;;;;5.05;1.48;;;17.50;99.90;;;;;;5050766;28;20025;-82
2022/09/22 01:43:39;;;;;;;9.32;1.88;;;17.40;99.90;;;;;;5050183;28;20029;-79
2022/09/22 01:46:39;;;;;;;11.60;1.13;;;17.30;99.90;;;;;;5052016;28;20009;-79
2022/09/22 01:49:09;;;;;;;7.80;1.77;;;17.40;99.90;;;;;;5052060;28;20096;-80
2022/09/22 01:51:58;;;;;;;6.05;1.50;;;17.40;99.90;;;;;;5052284;28;20017;-78
2022/09/22 01:54:44;;;;;;;8.13;1.38;;;17.50;99.90;;;;;;5051974;28;20512;-74
2022/09/22 01:57:20;;;;;;;8.13;2.22;;;17.40;99.90;;;;;;5050767;28;20108;-79
2022/09/22 01:59:53;;;;;;;9.00;1.55;;;17.30;99.90;;;;;;5051566;28;20028;-77
2022/09/22 02:02:36;;;;;;;9.32;1.40;;;17.20;99.90;;;;;;5052451;28;20532;-80
2022/09/22 02:05:09;;;;;;;10.45;1.77;;;17.20;99.90;;;;;;5053798;28;20363;-80
2022/09/22 02:07:41;;;;;;;8.80;1.63;;;17.00;99.90;;;;;;5055877;28;20044;-79
2022/09/22 02:10:14;;;;;;;9.80;1.90;;;17.10;99.90;;;;;;5053649;28;20021;-80
2022/09/22 02:12:41;;;;;;;10.82;1.13;;;17.20;99.90;;;;;;5055946;28;20028;-79
2022/09/22 02:15:58;;;;;;;6.60;1.35;;;17.20;99.90;;;;;;5056451;28;20120;-85
2022/09/22 02:18:05;;;;;;;6.80;1.33;;;17.10;99.90;;;;;;5054349;28;20021;-81
2022/09/22 02:20:33;;;;;;;1.67;0.95;;;17.10;99.90;;;;;;5056367;28;20033;-79
2022/09/22 02:23:01;;;;;;;3.42;1.30;;;17.00;99.90;;;;;;5055991;28;20032;-82
2022/09/22 02:25:28;;;;;;;3.45;1.13;;;17.00;99.90;;;;;;5056590;28;20021;-82
2022/09/22 02:27:57;;;;;;;5.45;0.77;;;16.80;99.90;;;;;;5056261;28;20029;-83
2022/09/22 02:30:25;;;;;;;9.15;1.30;;;17.00;99.90;;;;;;5056383;28;20359;-80
2022/09/22 02:32:55;;;;;;;1.80;0.68;;;17.00;99.90;;;;;;5055839;28;20473;-81
2022/09/22 02:35:25;;;;;;;4.22;1.35;;;17.10;99.90;;;;;;5056022;28;20489;-78
2022/09/22 02:38:03;;;;;;;2.92;0.70;;;17.00;99.90;;;;;;5056240;28;20077;-82
2022/09/22 02:40:43;;;;;;;2.70;0.55;;;16.90;99.90;;;;;;5056403;28;20373;-83
2022/09/22 02:43:53;;;;;;;2.90;1.00;;;16.90;99.90;;;;;;5054850;28;20500;-82
2022/09/22 02:46:45;;;;;;;5.32;0.95;;;16.90;99.90;;;;;;5055670;28;20040;-83
2022/09/22 02:49:16;;;;;;;3.03;0.82;;;16.80;99.90;;;;;;5056060;28;20029;-80
2022/09/22 02:51:45;;;;;;;7.05;1.38;;;16.80;99.90;;;;;;5056165;28;20029;-82
2022/09/22 02:54:15;;;;;;;3.42;1.42;;;16.80;99.90;;;;;;5056021;28;20360;-82
2022/09/22 02:56:44;;;;;;;3.90;0.90;;;16.80;99.90;;;;;;5055799;28;20026;-81
2022/09/22 02:59:11;;;;;;;3.10;1.00;;;16.70;99.90;;;;;;5052664;28;20151;-78
2022/09/22 03:01:39;;;;;;;2.60;0.80;;;16.70;99.90;;;;;;5054447;28;20493;-80
2022/09/22 03:04:06;;;;;;;6.60;1.00;;;16.70;99.90;;;;;;5050771;28;20034;-78
2022/09/22 03:06:37;;;;;;;4.05;0.90;;;16.60;99.90;;;;;;5043456;28;20073;-80
2022/09/22 03:09:04;;;;;;;5.28;1.35;;;16.60;99.90;;;;;;5034901;28;20029;-80
2022/09/22 03:11:35;;;;;;;3.90;1.00;;;16.40;99.90;;;;;;5034554;28;20018;-81
2022/09/22 03:14:02;;;;;;;6.93;1.23;;;16.30;99.90;;;;;;5033529;28;20029;-81
2022/09/22 03:16:29;;;;;;;8.23;1.35;;;16.40;99.90;;;;;;5038292;28;20025;-80
2022/09/22 03:18:57;;;;;;;6.00;1.45;;;16.40;99.90;;;;;;5039440;28;20051;-80
2022/09/22 03:21:24;;;;;;;10.27;1.55;;;16.50;99.90;;;;;;5044930;28;20053;-76
2022/09/22 03:23:52;;;;;;;9.00;1.33;;;16.50;99.90;;;;;;5034519;28;20466;-78
2022/09/22 03:26:19;;;;;;;6.78;1.40;;;16.60;99.90;;;;;;5033836;28;20463;-75
2022/09/22 03:28:47;;;;;;;8.45;1.73;;;16.50;99.90;;;;;;5050119;28;20089;-82
2022/09/22 03:31:15;;;;;;;7.55;1.38;;;16.60;99.90;;;;;;5050751;28;20111;-81
2022/09/22 03:33:42;;;;;;;9.13;1.52;;;16.50;99.90;;;;;;5052698;28;20059;-81
2022/09/22 03:36:09;;;;;;;8.70;1.98;;;16.40;99.90;;;;;;5053102;28;20021;-81
2022/09/22 03:38:37;;;;;;;8.13;1.45;;;16.40;99.90;;;;;;5051364;28;20463;-79
2022/09/22 03:41:04;;;;;;;6.18;1.35;;;16.40;99.90;;;;;;5033314;28;20025;-80
2022/09/22 03:43:31;;;;;;;9.52;1.52;;;16.40;99.90;;;;;;5040042;28;20403;-80
2022/09/22 03:46:01;;;;;;;5.10;1.35;;;16.30;99.90;;;;;;5035834;28;20104;-74
2022/09/22 03:48:30;;;;;;;7.20;2.45;;;16.30;99.90;;;;;;5035277;28;20094;-75
2022/09/22 03:50:57;;;;;;;7.78;1.45;;;16.40;99.90;;;;;;5035809;28;20082;-80
2022/09/22 03:53:24;;;;;;;6.78;2.03;;;16.30;99.90;;;;;;5039800;28;20394;-73
2022/09/22 03:55:52;;;;;;;7.60;1.10;;;16.30;99.90;;;;;;5042548;28;20025;-75
2022/09/22 03:58:20;;;;;;;5.65;2.13;;;16.30;99.90;;;;;;5055885;28;20017;-80
2022/09/22 04:00:49;;;;;;;9.30;1.52;;;16.30;99.90;;;;;;5053550;28;20028;-80
2022/09/22 04:03:17;;;;;;;4.57;1.50;;;16.30;99.90;;;;;;5054348;28;20540;-80
2022/09/22 04:05:51;;;;;;;5.22;1.23;;;16.30;99.90;;;;;;5054670;28;20033;-79
2022/09/22 04:08:18;;;;;;;6.43;1.77;;;16.30;99.90;;;;;;5054869;28;20102;-80
2022/09/22 04:10:46;;;;;;;4.57;1.40;;;16.20;99.90;;;;;;5053434;28;20104;-80
2022/09/22 04:13:14;;;;;;;12.95;1.95;;;16.30;99.90;;;;;;5053434;28;20143;-80
2022/09/22 04:15:42;;;;;;;9.80;1.42;;;16.30;99.90;;;;;;5053741;28;20025;-80
2022/09/22 04:18:11;;;;;;;5.47;1.33;;;16.30;99.90;;;;;;5053662;28;20045;-80
2022/09/22 04:20:42;;;;;;;7.18;1.63;;;16.40;99.90;;;;;;5053490;28;20104;-80
2022/09/22 04:23:11;;;;;;;5.72;1.30;;;16.40;99.90;;;;;;5053675;28;20096;-80
2022/09/22 04:25:38;;;;;;;7.10;2.05;;;16.40;99.90;;;;;;5053552;28;20024;-77
2022/09/22 04:28:07;;;;;;;10.20;1.60;;;16.30;99.90;;;;;;5051338;28;20017;-81
2022/09/22 04:30:35;;;;;;;12.23;2.20;;;16.30;99.90;;;;;;5053722;28;20056;-79
2022/09/22 04:33:03;;;;;;;4.30;1.60;;;16.40;99.90;;;;;;5051390;28;20025;-81
2022/09/22 04:35:30;;;;;;;4.95;1.15;;;16.50;99.90;;;;;;5053058;28;20102;-80
2022/09/22 04:37:58;;;;;;;3.75;1.17;;;16.50;99.90;;;;;;5053237;28;20017;-72
2022/09/22 04:40:26;;;;;;;7.70;1.80;;;16.60;99.90;;;;;;5052224;28;20040;-79
2022/09/22 04:42:53;;;;;;;8.07;1.52;;;16.50;99.90;;;;;;5053269;28;20013;-71
2022/09/22 04:45:20;;;;;;;5.10;1.60;;;16.50;99.90;;;;;;5050716;28;20028;-79
2022/09/22 04:47:52;;;;;;;9.10;1.88;;;16.50;99.90;;;;;;5053236;28;20036;-76
2022/09/22 04:50:21;;;;;;;7.15;1.67;;;16.40;99.90;;;;;;5058108;28;20116;-80
2022/09/22 04:52:54;;;;;;;7.53;1.58;;;16.50;99.90;;;;;;5063773;28;20100;-73
2022/09/22 04:55:23;;;;;;;5.07;1.08;;;16.60;99.90;;;;;;5059426;28;20501;-87
2022/09/22 04:57:53;;;;;;;5.45;1.48;;;16.50;99.90;;;;;;5053309;28;20021;-80
2022/09/22 05:00:21;;;;;;;8.75;1.83;;;16.50;99.90;;;;;;5051772;28;20021;-82
2022/09/22 05:02:50;;;;;;;9.90;1.40;;;16.50;99.90;;;;;;5052877;28;20037;-82
2022/09/22 05:05:18;;;;;;;5.65;1.70;;;16.40;99.90;;;;;;5052993;28;20512;-85
2022/09/22 05:07:47;;;;;;;6.13;1.92;;;16.50;99.90;;;;;;5053010;28;20035;-78
2022/09/22 05:10:19;;;;;;;6.63;1.73;;;16.50;99.90;;;;;;5053040;28;21512;-86
2022/09/22 05:12:47;;;;;;;12.48;2.15;;;16.50;99.90;;;;;;5050876;28;20032;-80
2022/09/22 05:15:15;;;;;;;11.70;2.53;;;16.50;99.90;;;;;;5052526;28;20036;-82
2022/09/22 05:17:46;;;;;;;6.80;1.52;;;16.40;99.90;;;;;;5050466;28;20020;-74
2022/09/22 05:20:14;;;;;;;8.73;1.75;;;16.40;99.90;;;;;;5053010;28;20025;-82
2022/09/22 05:22:43;;;;;;;6.85;1.92;;;16.40;99.90;;;;;;5052837;28;20017;-79
2022/09/22 05:25:13;;;;;;;7.10;1.83;;;16.50;99.90;;;;;;5051514;28;20028;-78
2022/09/22 05:27:45;;;;;;;5.13;1.65;;;16.40;99.90;;;;;;5052503;28;20029;-80
2022/09/22 05:30:13;;;;;;;4.50;1.35;;;16.30;99.90;;;;;;5051870;28;20518;-71
2022/09/22 05:32:45;;;;;;;7.25;2.03;;;16.30;99.90;;;;;;5048799;28;20119;-81
2022/09/22 05:35:18;;;;;;;8.45;1.90;;;16.40;99.90;;;;;;5051456;28;20489;-81
2022/09/22 05:37:48;;;;;;;6.85;1.52;;;16.40;99.90;;;;;;5049994;28;20052;-79
2022/09/22 05:40:15;;;;;;;13.70;2.08;;;16.40;99.90;;;;;;5054505;28;20112;-79
2022/09/22 05:42:47;;;;;;;6.93;1.90;;;16.30;99.90;;;;;;5056338;28;20023;-82
2022/09/22 05:45:15;;;;;;;8.95;2.03;;;16.40;99.90;;;;;;5055098;28;20442;-81
2022/09/22 05:47:43;;;;;;;7.03;1.55;;;16.40;99.90;;;;;;5054295;28;20470;-73
2022/09/22 05:50:13;;;;;;;10.95;1.60;;;16.30;99.90;;;;;;5056486;28;20032;-82
2022/09/22 05:52:41;;;;;;;10.00;2.60;;;16.40;99.90;;;;;;5053757;28;20020;-80
2022/09/22 05:55:08;;;;;;;4.40;1.48;;;16.50;99.90;;;;;;5056329;28;20351;-86
2022/09/22 05:57:36;;;;;;;5.63;2.20;;;16.40;99.90;;;;;;5051847;28;20033;-82
2022/09/22 06:00:05;;;;;;;10.25;2.20;;;16.40;99.90;;;;;;5055939;28;20108;-81
2022/09/22 06:02:32;;;;;;;4.78;1.48;;;16.40;99.90;;;;;;5055300;28;20116;-71
2022/09/22 06:05:00;;;;;;;6.45;2.10;;;16.30;99.90;;;;;;5056254;28;20028;-71
2022/09/22 06:07:27;;;;;;;8.43;1.48;;;16.30;99.90;;;;;;5056033;28;20106;-83
2022/09/22 06:09:54;;;;;;;12.23;1.85;;;16.30;99.90;;;;;;5053861;28;20404;-82
2022/09/22 06:12:22;;;;;;;6.28;1.50;;;16.30;99.90;;;;;;5055307;28;20036;-81
2022/09/22 06:14:49;;;;;;;7.65;1.35;;;16.20;99.90;;;;;;5056486;28;20033;-82
2022/09/22 06:17:16;;;;;;;9.98;1.98;;;16.10;99.90;;;;;;5056403;28;20525;-79
2022/09/22 06:19:49;;;;;;;8.98;1.90;;;16.10;99.90;;;;;;5056334;28;20393;-85
2022/09/22 06:22:17;;;;;;;7.78;1.55;;;16.10;99.90;;;;;;5056718;28;20100;-77
2022/09/22 06:24:45;;;;;;;6.43;1.25;;;16.00;99.90;;;;;;5055245;28;20072;-83
2022/09/22 06:27:12;;;;;;;6.22;2.05;;;15.90;99.90;;;;;;5056585;28;20029;-87
2022/09/22 06:29:40;;;;;;;6.10;1.65;;;16.00;99.90;;;;;;5056084;28;20031;-86
2022/09/22 06:32:09;;;;;;;6.72;1.92;;;15.90;99.90;;;;;;5055600;28;20039;-83
2022/09/22 06:34:37;;;;;;;7.47;1.27;;;16.00;99.90;;;;;;5056732;28;20065;-87
2022/09/22 06:37:10;;;;;;;13.48;1.85;;;15.90;99.90;;;;;;5056582;28;20079;-87
2022/09/22 06:39:37;;;;;;;5.05;1.15;;;16.00;99.90;;;;;;5055514;28;20438;-86
2022/09/22 06:42:05;;;;;;;9.27;1.40;;;16.00;99.90;;;;;;5054790;28;20057;-86
2022/09/22 06:44:33;;;;;;;11.93;1.85;;;16.00;99.90;;;;;;5054381;28;20027;-85
2022/09/22 06:47:07;;;;;;;5.35;1.40;;;15.90;99.90;;;;;;5054449;28;20108;-87
2022/09/22 06:49:34;;;;;;;4.82;1.38;;;15.90;99.90;;;;;;5054362;28;20025;-87
2022/09/22 06:52:02;;;;;;;7.32;1.35;;;15.90;99.90;;;;;;5054806;28;20036;-87
2022/09/22 06:54:30;;;;;;;11.57;1.55;;;15.90;99.90;;;;;;5054994;28;20516;-86
2022/09/22 06:56:57;;;;;;;7.50;1.33;;;15.90;99.90;;;;;;5056070;28;20028;-87
2022/09/22 06:59:25;;;;;;;6.35;1.23;;;15.80;99.90;;;;;;5056730;28;20025;-88
2022/09/22 07:01:52;;;;;;;6.32;1.50;;;15.90;99.90;;;;;;5055987;28;20854;-87
2022/09/22 07:04:21;;;;;;;9.50;1.52;;;15.80;99.90;;;;;;5055561;28;20025;-88
2022/09/22 07:06:49;;;;;;;4.20;1.73;;;15.80;99.90;;;;;;5055565;28;20074;-86
2022/09/22 07:09:16;;;;;;;9.85;1.70;;;15.80;99.90;;;;;;5055662;28;20501;-88
2022/09/22 07:11:46;;;;;;;7.10;1.83;;;15.80;99.90;;;;;;5056157;28;20397;-85
2022/09/22 07:14:13;;;;;;;7.85;1.65;;;15.80;99.90;;;;;;5055382;28;20540;-87
2022/09/22 07:16:42;;;;;;;12.15;2.17;;;15.80;99.90;;;;;;5055423;28;20029;-82
2022/09/22 07:19:09;;;;;;;6.35;1.35;;;15.80;99.90;;;;;;5055971;28;20517;-86
2022/09/22 07:21:39;;;;;;;7.90;1.58;;;15.80;99.90;;;;;;5055694;28;20029;-83
2022/09/22 07:24:09;;;;;;;9.80;2.15;;;15.70;99.90;;;;;;5055509;28;20027;-88
2022/09/22 07:26:39;;;;;;;6.63;2.10;;;15.70;99.90;;;;;;5055499;28;20032;-87
2022/09/22 07:29:15;;;;;;;6.70;1.33;;;15.60;99.90;;;;;;5055171;28;20032;-87
2022/09/22 07:31:43;;;;;;;10.82;1.95;;;15.60;99.90;;;;;;5055301;28;20124;-88
2022/09/22 07:34:11;;;;;;;7.22;1.70;;;15.50;99.90;;;;;;5055427;28;20032;-87
2022/09/22 07:36:39;;;;;;;9.45;2.05;;;15.50;99.90;;;;;;5055063;28;20051;-85
2022/09/22 07:39:11;;;;;;;5.82;1.63;;;15.40;99.90;;;;;;5055012;28;20025;-83
2022/09/22 07:41:42;;;;;;;6.13;1.65;;;15.30;99.90;;;;;;5055017;28;20153;-85
2022/09/22 07:46:57;;;;;;;3.33;1.27;;;15.10;99.90;;;;;;5055614;28;20032;-79
2022/09/22 07:49:24;;;;;;;5.50;1.35;;;15.10;99.90;;;;;;5054984;28;20035;-85
2022/09/22 07:51:56;;;;;;;5.65;1.00;;;15.00;99.90;;;;;;5054666;28;20478;-80
2022/09/22 07:54:25;;;;;;;7.72;1.40;;;15.00;99.90;;;;;;5054709;28;20037;-80
2022/09/22 07:56:57;;;;;;;8.70;1.15;;;14.90;99.90;;;;;;5054405;28;20462;-72
2022/09/22 07:59:24;;;;;;;5.13;1.10;;;14.90;99.90;;;;;;5054864;28;20029;-80
2022/09/22 08:01:53;;;;;;;6.95;1.17;;;14.80;99.90;;;;;;5054202;28;20041;-82
2022/09/22 08:04:22;;;;;;;2.63;0.80;;;14.80;99.90;;;;;;5053510;28;20051;-85
2022/09/22 08:06:54;;;;;;;6.60;1.55;;;14.80;99.90;;;;;;5054309;28;20024;-72
2022/09/22 08:09:22;;;;;;;6.05;1.70;;;14.80;99.90;;;;;;5054632;28;20049;-85
2022/09/22 08:11:51;;;;;;;4.72;1.20;;;14.70;99.90;;;;;;5054626;28;20027;-74
2022/09/22 08:14:22;;;;;;;3.45;1.35;;;14.70;99.90;;;;;;5053133;28;20086;-83
2022/09/22 08:16:50;;;;;;;5.20;1.35;;;14.70;99.90;;;;;;5054285;28;20113;-72
2022/09/22 08:19:20;;;;;;;9.80;1.85;;;14.70;99.90;;;;;;5054331;28;20497;-86
2022/09/22 08:21:50;;;;;;;4.85;1.98;;;14.70;99.90;;;;;;5054290;28;20025;-86
2022/09/22 08:24:21;;;;;;;4.03;1.52;;;14.70;99.90;;;;;;5054308;28;20021;-79
2022/09/22 08:26:49;;;;;;;7.55;2.38;;;14.70;99.90;;;;;;5054360;28;20029;-84
2022/09/22 08:29:17;;;;;;;7.57;1.88;;;14.70;99.90;;;;;;5054131;28;20020;-86
2022/09/22 08:31:46;;;;;;;5.95;1.95;;;14.60;99.90;;;;;;5052761;28;20409;-86
2022/09/22 08:34:15;;;;;;;3.70;1.65;;;14.60;99.90;;;;;;5053854;28;20126;-86
2022/09/22 08:36:45;;;;;;;6.28;1.90;;;14.60;99.90;;;;;;5054622;28;20059;-85
2022/09/22 08:39:14;;;;;;;3.78;0.95;;;14.60;99.90;;;;;;5053526;28;20039;-86
2022/09/22 08:42:07;;;;;;;9.32;1.77;;;14.60;99.90;;;;;;5054593;28;20033;-85
2022/09/22 08:44:48;;;;;;;5.05;1.55;;;14.60;99.90;;;;;;5054438;28;20021;-85
2022/09/22 08:53:28;;;;;;;2.45;0.98;;;14.60;99.90;;;;;;5054400;28;20116;-84
2022/09/22 08:56:14;;;;;;;2.78;0.70;;;14.60;99.90;;;;;;5052706;28;20029;-77
2022/09/22 08:58:57;;;;;;;3.30;1.00;;;14.60;99.90;;;;;;5054244;28;20025;-84
2022/09/22 09:01:42;;;;;;;2.63;1.05;;;14.60;99.90;;;;;;5053891;28;20029;-85
2022/09/22 09:04:45;;;;;;;4.13;1.17;;;14.60;99.90;;;;;;5053849;28;20389;-85
2022/09/22 09:07:24;;;;;;;6.32;1.05;;;14.50;99.90;;;;;;5053706;28;20049;-85
2022/09/22 09:10:03;;;;;;;6.88;1.05;;;14.50;99.90;;;;;;5053938;28;20040;-84
2022/09/22 09:13:01;;;;;;;4.03;1.20;;;14.50;99.90;;;;;;5053582;28;20025;-81
2022/09/22 09:15:49;;;;;;;3.22;1.00;;;14.60;99.90;;;;;;5053301;28;20052;-86
2022/09/22 09:18:23;;;;;;;6.05;1.52;;;14.50;99.90;;;;;;5053375;28;20025;-81
2022/09/22 09:20:52;;;;;;;5.07;1.05;;;14.50;99.90;;;;;;5054178;28;20021;-86
2022/09/22 09:23:38;;;;;;;3.95;1.10;;;14.50;99.90;;;;;;5053348;28;20025;-82
2022/09/22 09:26:05;;;;;;;;;;;14.60;99.90;;;;;;5053743;28;20079;-87
2022/09/22 09:28:46;;;;;;;4.72;1.02;;;14.60;99.90;;;;;;5053157;28;19911;-87
2022/09/22 09:31:36;;;;;;;2.45;0.93;;;14.60;99.90;;;;;;5051272;28;20017;-87
2022/09/22 09:34:16;;;;;;;4.55;1.38;;;14.60;99.90;;;;;;5051504;28;20017;-87
2022/09/22 09:36:51;;;;;;;4.82;1.27;;;14.60;99.90;;;;;;5052309;28;20078;-87
2022/09/22 09:39:28;;;;;;;6.32;1.25;;;14.60;99.90;;;;;;5052850;28;20017;-87
2022/09/22 09:41:57;;;;;;;3.70;0.93;;;14.60;99.90;;;;;;5051706;28;20386;-87
2022/09/22 09:44:29;;;;;;;5.53;1.48;;;14.50;99.90;;;;;;5051921;28;20113;-88
2022/09/22 09:47:35;;;;;;;15.63;1.88;;;14.50;99.90;;;;;;5051905;28;20183;-79
2022/09/22 09:50:03;;;;;;;2.55;0.90;;;14.50;99.90;;;;;;5032527;28;20138;-87
2022/09/22 09:52:34;;;;;;;5.40;1.60;;;14.50;99.90;;;;;;5045668;28;20022;-82
2022/09/22 09:55:05;;;;;;;3.28;1.33;;;14.40;99.90;;;;;;5047470;28;20033;-88
2022/09/22 09:57:33;;;;;;;5.55;1.08;;;14.40;99.90;;;;;;5048361;28;20067;-87
2022/09/22 10:00:30;;;;;;;7.03;1.33;;;14.40;99.90;;;;;;5045289;28;20443;-87
2022/09/22 10:03:12;;;;;;;7.80;1.88;;;14.40;99.90;;;;;;5049599;28;20049;-86
2022/09/22 10:05:42;;;;;;;4.25;1.13;;;14.40;99.90;;;;;;5042653;28;20029;-87
2022/09/22 10:08:20;;;;;;;7.90;1.33;;;14.40;99.90;;;;;;5033975;28;20028;-82
2022/09/22 10:10:48;;;;;;;3.97;1.40;;;14.50;99.90;;;;;;5039355;28;20033;-79
2022/09/22 10:13:38;;;;;;;5.38;1.70;;;14.50;99.90;;;;;;5039219;28;20028;-80
2022/09/22 10:16:20;;;;;;;8.00;1.25;;;14.50;99.90;;;;;;5037060;28;20041;-73
2022/09/22 10:18:50;;;;;;;6.88;1.52;;;14.50;99.90;;;;;;5038185;28;20029;-86
2022/09/22 10:21:22;;;;;;;7.10;1.17;;;14.40;99.90;;;;;;5039493;28;20524;-84
2022/09/22 10:23:52;;;;;;;7.53;1.55;;;14.50;99.90;;;;;;5046906;28;20021;-86
2022/09/22 10:26:28;;;;;;;4.60;0.98;;;14.50;99.90;;;;;;5070763;28;20103;-87
2022/09/22 10:29:18;;;;;;;6.50;1.65;;;14.50;99.90;;;;;;5072817;28;20020;-83
2022/09/22 10:32:14;;;;;;;5.57;0.90;;;14.50;99.90;;;;;;5072530;28;20033;-75
2022/09/22 10:34:48;;;;;;;5.13;1.15;;;14.40;99.90;;;;;;5071293;28;20029;-87
2022/09/22 10:37:20;;;;;;;4.10;1.50;;;14.40;99.90;;;;;;5073323;28;20485;-87
2022/09/22 10:39:57;;;;;;;8.60;1.42;;;14.40;99.90;;;;;;5072843;28;20107;-72
2022/09/22 10:42:44;;;;;;;7.20;1.65;;;14.40;99.90;;;;;;5072544;28;20067;-78
2022/09/22 10:45:18;;;;;;;9.18;1.08;;;14.40;99.90;;;;;;5069700;28;20020;-87
2022/09/22 10:47:55;;;;;;;5.88;1.40;;;14.40;99.90;;;;;;5074180;28;20107;-82
2022/09/22 10:50:35;;;;;;;4.47;1.50;;;14.30;99.90;;;;;;5071368;28;20070;-86
2022/09/22 10:53:12;;;;;;;4.20;1.40;;;14.40;99.90;;;;;;5070360;28;20028;-86
2022/09/22 10:56:03;;;;;;;8.52;1.25;;;14.40;99.90;;;;;;5070926;28;20032;-74
2022/09/22 10:58:59;;;;;;;8.32;2.38;;;14.40;99.90;;;;;;5066841;28;20736;-81
2022/09/22 11:02:02;;;;;;;6.28;1.33;;;14.40;99.90;;;;;;5070883;28;20025;-73
2022/09/22 11:05:02;;;;;;;8.98;1.85;;;14.40;99.90;;;;;;5053625;28;20048;-87
2022/09/22 11:14:16;;;;;;;7.07;1.27;;;14.40;99.90;;;;;;5058791;28;20047;-87
2022/09/22 11:16:53;;;;;;;5.45;1.25;;;14.40;99.90;;;;;;5049240;28;20082;-78
2022/09/22 11:19:49;;;;;;;9.20;1.55;;;14.40;99.90;;;;;;5071642;28;20477;-81
2022/09/22 11:22:47;;;;;;;7.53;1.95;;;14.40;99.90;;;;;;5068405;28;20025;-85
2022/09/22 11:25:42;;;;;;;7.47;1.33;;;14.40;99.90;;;;;;5070349;28;20495;-87
2022/09/22 11:28:35;;;;;;;4.60;1.20;;;14.40;99.90;;;;;;5047703;28;20025;-80
2022/09/22 11:31:02;;;;;;;2.95;0.93;;;14.40;99.90;;;;;;5072605;28;20022;-78
2022/09/22 11:33:42;;;;;;;5.50;2.25;;;14.50;99.90;;;;;;5072821;28;20472;-85
2022/09/22 11:36:25;;;;;;;6.72;1.50;;;14.50;99.90;;;;;;5054172;28;20124;-80
2022/09/22 11:39:14;;;;;;;3.70;1.30;;;14.40;99.90;;;;;;5051391;28;20040;-86
2022/09/22 11:41:47;;;;;;;6.35;1.70;;;14.40;99.90;;;;;;5051539;28;20486;-84
2022/09/22 11:44:30;;;;;;;4.70;1.52;;;14.40;99.90;;;;;;5053672;28;20033;-82
2022/09/22 11:47:04;;;;;;;7.43;1.58;;;14.50;99.90;;;;;;5052327;28;20516;-79
2022/09/22 11:49:40;;;;;;;3.80;1.75;;;14.40;99.90;;;;;;5053186;28;20025;-78
2022/09/22 11:52:18;;;;;;;4.82;1.50;;;14.40;99.90;;;;;;5050735;28;20037;-87
2022/09/22 11:55:04;;;;;;;5.43;1.90;;;14.40;99.90;;;;;;5051250;28;20033;-83
2022/09/22 11:57:38;;;;;;;7.75;2.30;;;14.40;99.90;;;;;;5051899;28;20069;-74
2022/09/22 12:00:16;;;;;;;9.43;3.85;;;14.40;99.90;;;;;;5052169;28;20501;-87
2022/09/22 12:03:09;;;;;;;6.63;2.88;;;14.40;99.90;;;;;;5051898;28;20052;-86
2022/09/22 12:05:42;;;;;;;6.00;2.03;;;14.40;99.90;;;;;;5053480;28;20046;-77
2022/09/22 12:08:15;;;;;;;6.07;2.20;;;14.40;99.90;;;;;;5052620;28;20021;-82
2022/09/22 12:10:46;;;;;;;4.72;1.90;;;14.50;99.90;;;;;;5052508;28;20088;-80
2022/09/22 12:13:36;;;;;;;6.85;2.38;;;14.40;99.90;;;;;;5052611;28;20108;-84
2022/09/22 12:16:38;;;;;;;9.23;2.08;;;14.40;99.90;;;;;;5050771;28;20061;-84
2022/09/22 12:19:21;;;;;;;5.15;1.80;;;14.40;99.90;;;;;;5052372;28;20147;-79
2022/09/22 12:21:57;;;;;;;3.95;1.70;;;14.40;99.90;;;;;;5051500;28;20104;-89
2022/09/22 12:24:25;;;;;;;5.88;2.40;;;14.40;99.90;;;;;;5051546;28;20078;-90
2022/09/22 12:26:53;;;;;;;5.78;1.90;;;14.50;99.90;;;;;;5053384;28;20024;-90
2022/09/22 12:29:28;;;;;;;3.50;1.65;;;14.50;99.90;;;;;;5053065;28;20045;-91
2022/09/22 12:31:58;;;;;;;3.42;1.45;;;14.50;99.90;;;;;;5052428;28;20029;-90
2022/09/22 12:34:40;;;;;;;5.55;1.80;;;14.50;99.90;;;;;;5051506;28;20033;-82
2022/09/22 12:37:22;;;;;;;3.28;1.83;;;14.50;99.90;;;;;;5052314;28;20104;-90
2022/09/22 12:39:50;;;;;;;6.20;1.77;;;14.50;99.90;;;;;;5053597;28;20021;-87
2022/09/22 12:42:34;;;;;;;5.32;1.25;;;14.50;99.90;;;;;;5053481;28;20609;-86
2022/09/22 12:45:32;;;;;;;5.63;1.73;;;14.40;99.90;;;;;;5053441;28;20516;-86
2022/09/22 12:48:22;;;;;;;5.03;1.70;;;14.40;99.90;;;;;;5052869;28;20021;-83
2022/09/22 12:50:51;;;;;;;6.97;2.08;;;14.30;99.90;;;;;;5053070;28;20032;-85
2022/09/22 12:53:21;;;;;;;6.43;1.90;;;14.30;99.90;;;;;;5053303;28;20028;-84
2022/09/22 12:55:56;;;;;;;3.13;1.73;;;14.30;99.90;;;;;;5052968;28;20489;-84
2022/09/22 12:58:29;;;;;;;5.97;1.73;;;14.30;99.90;;;;;;5053302;28;20025;-84
2022/09/22 13:01:31;;;;;;;6.40;2.03;;;14.30;99.90;;;;;;5053050;28;20066;-81
2022/09/22 13:04:18;;;;;;;4.60;1.50;;;14.40;99.90;;;;;;5052641;28;20052;-82
2022/09/22 13:06:46;;;;;;;4.13;1.30;;;14.40;99.90;;;;;;5052872;28;20052;-83
2022/09/22 13:09:27;;;;;;;3.17;1.60;;;14.30;99.90;;;;;;5053109;28;20555;-75
2022/09/22 13:12:13;;;;;;;6.07;1.50;;;14.20;99.90;;;;;;5052698;28;20025;-85
2022/09/22 13:15:15;;;;;;;2.58;1.27;;;14.20;99.90;;;;;;5051066;28;20032;-83
2022/09/22 13:17:46;;;;;;;3.45;1.08;;;14.20;99.90;;;;;;5020179;28;20134;-86
2022/09/22 13:20:15;;;;;;;7.22;1.73;;;14.20;99.90;;;;;;5052560;28;20025;-83
2022/09/22 13:22:43;;;;;;;4.45;1.27;;;14.20;99.90;;;;;;5052819;28;20032;-84
2022/09/22 13:25:30;;;;;;;2.35;1.20;;;14.20;99.90;;;;;;5052888;28;20023;-81
2022/09/22 13:28:09;;;;;;;4.55;1.20;;;14.20;99.90;;;;;;5052490;28;20029;-87
2022/09/22 13:30:39;;;;;;;4.68;1.20;;;14.20;99.90;;;;;;5052565;28;20021;-88
2022/09/22 13:33:18;;;;;;;4.40;1.48;;;14.20;99.90;;;;;;5052363;28;20033;-85
2022/09/22 13:35:46;;;;;;;3.60;1.23;;;14.20;99.90;;;;;;5050721;28;20429;-88
2022/09/22 13:38:16;;;;;;;3.65;1.17;;;14.10;99.90;;;;;;5052239;28;20119;-86